Time;durP1;ratioP1;P1;durP2;ratioP2;P2;SDS_P1;SDS_P2;PMS_P1;PMS_P2;Temp;Humidity;BMP_temperature;BMP_pressure;BME280_temperature;BME280_humidity;BME280_pressure;Samples;Min_cycle;Max_cycle;Signal;HPM_P1;HPM_P2
2021/10/04 00:00:33;;;;;;;1.13;0.60;;;;;;;12.51;93.78;95826.22;5050808;28;24443;-76
2021/10/04 00:03:01;;;;;;;0.40;0.40;;;;;;;12.52;94.20;95825.25;5050130;28;21263;-76
2021/10/04 00:05:29;;;;;;;0.52;0.43;;;;;;;12.47;94.30;95832.56;5056996;22;24479;-76
2021/10/04 00:07:56;;;;;;;1.00;0.30;;;;;;;12.47;95.10;95827.38;5030787;28;24431;-76
2021/10/04 00:10:22;;;;;;;0.75;0.50;;;;;;;12.40;94.31;95818.34;5030445;28;24447;-76
2021/10/04 00:12:49;;;;;;;1.60;0.43;;;;;;;12.17;94.66;95822.50;5030379;28;24424;-76
2021/10/04 00:15:18;;;;;;;0.80;0.40;;;;;;;12.17;96.17;95819.09;5030247;28;24495;-76
2021/10/04 00:17:45;;;;;;;0.77;0.63;;;;;;;12.26;96.27;95824.47;5030455;28;25095;-76
2021/10/04 00:20:14;;;;;;;1.00;0.50;;;;;;;12.38;95.60;95825.38;5030349;28;24454;-76
2021/10/04 00:22:43;;;;;;;0.60;0.40;;;;;;;12.51;95.32;95827.97;5030432;28;24415;-76
2021/10/04 00:25:10;;;;;;;2.40;0.40;;;;;;;12.71;97.30;95829.19;5029925;28;24789;-76
2021/10/04 00:27:37;;;;;;;0.60;0.50;;;;;;;12.94;98.00;95824.94;5030468;28;24501;-76
2021/10/04 00:30:06;;;;;;;0.82;0.40;;;;;;;12.92;98.20;95835.47;5030601;28;24480;-76
2021/10/04 00:32:33;;;;;;;0.50;0.40;;;;;;;12.86;98.32;95827.25;5030589;28;24516;-75
2021/10/04 00:34:59;;;;;;;0.55;0.40;;;;;;;12.75;98.24;95830.63;5030043;28;24447;-76
2021/10/04 00:37:25;;;;;;;0.55;0.43;;;;;;;12.66;98.80;95839.91;5030300;28;24423;-76
2021/10/04 00:39:53;;;;;;;2.60;0.60;;;;;;;12.62;100.00;95848.03;5030275;28;24491;-76
2021/10/04 00:42:21;;;;;;;0.80;0.57;;;;;;;12.71;99.74;95843.00;5030203;28;24984;-76
2021/10/04 00:44:48;;;;;;;0.70;0.40;;;;;;;12.77;100.00;95841.75;5031526;28;24439;-75
2021/10/04 00:47:14;;;;;;;0.65;0.40;;;;;;;12.65;100.00;95843.44;5034511;28;24428;-75
2021/10/04 00:49:41;;;;;;;0.40;0.40;;;;;;;12.59;100.00;95825.66;5034150;28;24825;-76
2021/10/04 00:52:07;;;;;;;0.50;0.40;;;;;;;12.56;100.00;95825.88;5033901;28;24424;-75
2021/10/04 00:54:34;;;;;;;0.45;0.40;;;;;;;12.55;100.00;95817.25;5033714;28;24777;-75
2021/10/04 00:57:02;;;;;;;2.27;0.50;;;;;;;12.35;100.00;95818.66;5034196;28;24427;-75
2021/10/04 00:59:28;;;;;;;2.53;0.82;;;;;;;11.98;100.00;95817.75;5033937;28;24490;-75
2021/10/04 01:01:54;;;;;;;3.85;0.80;;;;;;;11.99;100.00;95815.97;5034019;28;24507;-76
2021/10/04 01:04:26;;;;;;;0.73;0.50;;;;;;;12.19;100.00;95823.22;5034018;28;24423;-75
2021/10/04 01:06:52;;;;;;;2.20;0.65;;;;;;;12.29;100.00;95832.06;5034077;28;24428;-76
2021/10/04 01:09:19;;;;;;;2.45;0.80;;;;;;;12.15;100.00;95831.34;5034000;28;24462;-76
2021/10/04 01:11:45;;;;;;;1.38;0.57;;;;;;;11.84;100.00;95830.81;5033908;28;24416;-75
2021/10/04 01:14:13;;;;;;;2.38;0.68;;;;;;;11.75;100.00;95828.78;5033567;28;24970;-76
2021/10/04 01:16:40;;;;;;;1.00;0.70;;;;;;;11.80;100.00;95822.38;5033453;28;24860;-75
2021/10/04 01:19:06;;;;;;;2.05;0.47;;;;;;;11.90;100.00;95830.38;5033640;28;25162;-75
2021/10/04 01:21:34;;;;;;;0.88;0.57;;;;;;;11.96;100.00;95831.75;5033347;28;25127;-75
2021/10/04 01:24:00;;;;;;;1.00;0.55;;;;;;;11.94;100.00;95839.66;5033739;28;24423;-75
2021/10/04 01:26:27;;;;;;;1.60;0.60;;;;;;;11.48;100.00;95847.81;5033255;28;24432;-75
2021/10/04 01:28:53;;;;;;;0.57;0.50;;;;;;;11.17;100.00;95854.16;5033658;28;24420;-75
2021/10/04 01:31:22;;;;;;;1.70;0.70;;;;;;;10.99;100.00;95843.19;5033290;28;24781;-74
2021/10/04 01:33:48;;;;;;;1.23;0.60;;;;;;;10.93;100.00;95840.97;5033206;28;24438;-74
2021/10/04 01:36:15;;;;;;;1.20;0.80;;;;;;;10.94;100.00;95849.59;5033198;28;24497;-74
2021/10/04 01:38:43;;;;;;;2.65;0.65;;;;;;;11.03;100.00;95847.25;5033410;28;24431;-75
2021/10/04 01:41:10;;;;;;;1.07;0.60;;;;;;;11.03;100.00;95849.03;5033175;28;24895;-74
2021/10/04 01:43:36;;;;;;;0.40;0.40;;;;;;;11.04;100.00;95853.28;5033259;28;24829;-74
2021/10/04 01:46:03;;;;;;;0.90;0.73;;;;;;;11.06;100.00;95849.66;5032804;28;24961;-74
2021/10/04 01:48:29;;;;;;;0.95;0.50;;;;;;;11.04;100.00;95855.88;5032981;28;25003;-75
2021/10/04 01:50:56;;;;;;;0.77;0.60;;;;;;;11.18;100.00;95861.00;5033189;28;25015;-74
2021/10/04 01:53:22;;;;;;;1.35;0.57;;;;;;;11.13;100.00;95863.06;5032860;28;25003;-74
2021/10/04 01:55:50;;;;;;;1.23;0.63;;;;;;;11.24;100.00;95864.97;5031465;28;24495;-74
2021/10/04 01:58:17;;;;;;;2.00;0.60;;;;;;;11.41;100.00;95856.94;5032913;28;25051;-73
2021/10/04 02:00:44;;;;;;;0.80;0.60;;;;;;;11.55;100.00;95850.84;5032763;28;24976;-74
2021/10/04 02:03:11;;;;;;;1.00;0.70;;;;;;;11.94;100.00;95847.44;5032607;28;24435;-74
2021/10/04 02:05:37;;;;;;;0.93;0.60;;;;;;;12.12;100.00;95860.91;5032263;28;24439;-74
2021/10/04 02:08:05;;;;;;;4.13;0.70;;;;;;;12.12;100.00;95860.91;5032819;28;24420;-75
2021/10/04 02:10:36;;;;;;;0.63;0.50;;;;;;;12.23;100.00;95860.19;5032916;28;24510;-75
2021/10/04 02:13:06;;;;;;;0.90;0.52;;;;;;;12.32;100.00;95860.41;5032634;28;24766;-75
2021/10/04 02:15:34;;;;;;;1.33;0.45;;;;;;;12.15;100.00;95862.47;5032107;28;24435;-75
2021/10/04 02:18:01;;;;;;;1.00;0.50;;;;;;;12.03;100.00;95864.97;5032805;28;24777;-75
2021/10/04 02:20:31;;;;;;;0.67;0.50;;;;;;;12.14;100.00;95868.63;5032609;28;24528;-75
2021/10/04 02:23:05;;;;;;;1.23;0.60;;;;;;;12.42;100.00;95860.63;5032546;28;24466;-75
2021/10/04 02:25:32;;;;;;;2.65;0.63;;;;;;;12.35;100.00;95849.81;5032072;28;24520;-75
2021/10/04 02:27:58;;;;;;;2.80;0.67;;;;;;;12.51;100.00;95854.78;5032263;28;24408;-75
2021/10/04 02:30:26;;;;;;;1.20;0.60;;;;;;;12.20;100.00;95853.47;5032120;28;24435;-75
2021/10/04 02:32:53;;;;;;;0.73;0.52;;;;;;;12.13;100.00;95854.81;5032372;28;24423;-75
2021/10/04 02:35:22;;;;;;;2.00;0.60;;;;;;;12.12;100.00;95853.13;5032075;28;24786;-75
2021/10/04 02:37:52;;;;;;;0.75;0.60;;;;;;;12.07;100.00;95856.03;5032287;28;24423;-75
2021/10/04 02:40:19;;;;;;;1.20;0.60;;;;;;;11.91;100.00;95854.59;5032130;28;24547;-76
2021/10/04 02:42:47;;;;;;;0.82;0.50;;;;;;;11.86;100.00;95850.53;5032106;28;24971;-76
2021/10/04 02:45:16;;;;;;;1.00;0.60;;;;;;;11.80;100.00;95839.69;5031962;28;24416;-76
2021/10/04 02:47:45;;;;;;;0.87;0.50;;;;;;;11.77;100.00;95839.91;5032288;28;24416;-76
2021/10/04 02:50:15;;;;;;;1.33;0.50;;;;;;;11.76;100.00;95830.47;5032473;28;24428;-76
2021/10/04 02:52:42;;;;;;;0.50;0.47;;;;;;;11.81;100.00;95824.03;5031923;28;24427;-76
2021/10/04 02:55:09;;;;;;;1.20;0.60;;;;;;;11.86;100.00;95821.13;5031271;28;24439;-74
2021/10/04 02:57:35;;;;;;;0.93;0.50;;;;;;;11.94;100.00;95818.88;5031630;28;24466;-75
2021/10/04 03:00:04;;;;;;;0.70;0.50;;;;;;;11.99;100.00;95823.75;5031966;28;24424;-75
2021/10/04 03:02:31;;;;;;;0.80;0.80;;;;;;;12.05;100.00;95824.19;5031895;28;24493;-74
2021/10/04 03:04:59;;;;;;;1.38;0.70;;;;;;;11.94;100.00;95831.88;5031244;28;24527;-75
2021/10/04 03:07:26;;;;;;;0.93;0.60;;;;;;;11.89;100.00;95844.31;5031348;28;24450;-75
2021/10/04 03:09:52;;;;;;;0.60;0.60;;;;;;;11.92;100.00;95848.47;5031455;28;24474;-75
2021/10/04 03:12:19;;;;;;;1.02;0.60;;;;;;;11.93;100.00;95844.94;5031622;28;24512;-75
2021/10/04 03:14:46;;;;;;;0.82;0.60;;;;;;;11.89;100.00;95856.44;5031157;28;24424;-75
2021/10/04 03:17:12;;;;;;;0.70;0.53;;;;;;;11.90;100.00;95845.94;5031609;28;24870;-75
2021/10/04 03:19:39;;;;;;;0.98;0.65;;;;;;;11.93;100.00;95850.13;5031454;28;24836;-75
2021/10/04 03:22:07;;;;;;;0.90;0.55;;;;;;;11.89;100.00;95853.84;5031168;28;24435;-75
2021/10/04 03:24:34;;;;;;;1.00;0.65;;;;;;;11.78;100.00;95854.53;5031126;28;24503;-75
2021/10/04 03:27:01;;;;;;;0.95;0.60;;;;;;;11.68;100.00;95869.88;5031323;28;24416;-76
2021/10/04 03:29:27;;;;;;;0.65;0.50;;;;;;;11.65;100.00;95867.50;5031641;28;24779;-76
2021/10/04 03:31:54;;;;;;;0.63;0.53;;;;;;;11.51;100.00;95868.38;5031210;28;24419;-76
2021/10/04 03:34:21;;;;;;;1.07;0.83;;;;;;;11.53;100.00;95879.50;5031524;28;25084;-76
2021/10/04 03:36:47;;;;;;;4.50;0.77;;;;;;;11.44;100.00;95881.84;5030623;28;24521;-76
2021/10/04 03:39:15;;;;;;;1.13;0.73;;;;;;;11.44;100.00;95869.72;5031224;28;24844;-76
2021/10/04 03:41:41;;;;;;;1.27;0.73;;;;;;;11.45;100.00;95873.94;5030851;28;25003;-76
2021/10/04 03:44:08;;;;;;;0.60;0.60;;;;;;;11.41;100.00;95869.91;5031001;28;24458;-75
2021/10/04 03:46:35;;;;;;;1.27;0.80;;;;;;;11.39;100.00;95864.00;5030669;28;24426;-75
2021/10/04 03:49:02;;;;;;;1.15;0.85;;;;;;;11.46;100.00;95875.63;5031425;28;24424;-76
2021/10/04 03:51:28;;;;;;;1.00;0.75;;;;;;;11.51;100.00;95875.34;5030631;28;24416;-76
2021/10/04 03:53:55;;;;;;;1.20;0.80;;;;;;;11.52;100.00;95884.78;5030682;28;24424;-76
2021/10/04 03:56:23;;;;;;;1.38;0.85;;;;;;;11.63;100.00;95880.53;5030563;28;24837;-76
2021/10/04 03:58:49;;;;;;;1.25;0.80;;;;;;;11.68;100.00;95885.47;5030734;28;24473;-75
2021/10/04 04:01:16;;;;;;;0.90;0.80;;;;;;;11.72;100.00;95883.50;5030703;28;24462;-76
2021/10/04 04:03:42;;;;;;;1.17;0.80;;;;;;;11.76;100.00;95862.44;5030586;28;24416;-75
2021/10/04 04:06:09;;;;;;;0.98;0.60;;;;;;;11.85;100.00;95853.22;5030079;28;24435;-76
2021/10/04 04:08:36;;;;;;;1.42;0.70;;;;;;;11.85;100.00;95861.00;5030526;28;24972;-76
2021/10/04 04:11:03;;;;;;;1.30;0.70;;;;;;;11.88;100.00;95878.97;5023891;28;24968;-75
2021/10/04 04:13:31;;;;;;;0.87;0.80;;;;;;;11.86;100.00;95875.63;5023563;28;24526;-75
2021/10/04 04:15:57;;;;;;;1.27;0.77;;;;;;;11.84;100.00;95875.75;5029951;28;24502;-75
2021/10/04 04:18:23;;;;;;;1.92;0.63;;;;;;;12.02;100.00;95872.88;5029956;28;24454;-75
2021/10/04 04:20:50;;;;;;;1.10;0.93;;;;;;;12.14;100.00;95873.81;5030212;28;24452;-75
2021/10/04 04:23:16;;;;;;;1.23;1.08;;;;;;;12.15;100.00;95884.09;5030587;28;24427;-75
2021/10/04 04:25:43;;;;;;;0.85;0.70;;;;;;;11.94;100.00;95881.19;5023790;28;24441;-75
2021/10/04 04:28:09;;;;;;;3.28;1.13;;;;;;;11.84;100.00;95893.09;5016899;28;24478;-75
2021/10/04 04:30:37;;;;;;;1.48;1.17;;;;;;;11.78;100.00;95889.09;5010599;28;24436;-75
2021/10/04 04:33:03;;;;;;;0.85;0.80;;;;;;;11.77;100.00;95882.25;5017293;28;24443;-75
2021/10/04 04:35:30;;;;;;;1.05;0.90;;;;;;;11.79;100.00;95883.00;5024887;28;24443;-75
2021/10/04 04:37:56;;;;;;;1.75;0.90;;;;;;;11.63;100.00;95884.91;5030298;28;24435;-74
2021/10/04 04:40:23;;;;;;;1.67;0.93;;;;;;;11.47;100.00;95882.47;5030569;28;24419;-75
2021/10/04 04:42:49;;;;;;;2.78;1.40;;;;;;;11.50;100.00;95897.03;5030256;28;24435;-75
2021/10/04 04:45:18;;;;;;;1.53;1.17;;;;;;;11.54;100.00;95908.88;5030105;28;24583;-75
2021/10/04 04:47:47;;;;;;;1.90;1.35;;;;;;;11.30;100.00;95919.84;5030134;28;24900;-74
2021/10/04 04:50:15;;;;;;;2.10;1.30;;;;;;;11.24;100.00;95917.66;5030585;28;24427;-74
2021/10/04 04:52:42;;;;;;;1.80;1.20;;;;;;;11.14;100.00;95921.75;5030545;28;24542;-75
2021/10/04 04:55:09;;;;;;;3.85;1.30;;;;;;;11.27;100.00;95926.97;5030039;28;24455;-76
2021/10/04 04:57:36;;;;;;;1.48;0.93;;;;;;;11.38;100.00;95930.59;5030344;28;24477;-74
2021/10/04 05:00:05;;;;;;;1.10;0.90;;;;;;;11.48;100.00;95933.41;5030013;28;24420;-74
2021/10/04 05:02:35;;;;;;;1.30;1.00;;;;;;;11.56;100.00;95933.75;5030237;28;24806;-74
2021/10/04 05:05:04;;;;;;;2.00;1.10;;;;;;;11.63;100.00;95918.63;5029823;28;24787;-75
2021/10/04 05:07:30;;;;;;;2.10;1.17;;;;;;;11.67;100.00;95917.50;5031844;28;24454;-79
2021/10/04 05:09:56;;;;;;;1.65;1.00;;;;;;;11.70;100.00;95927.69;5030817;28;24426;-79
2021/10/04 05:12:23;;;;;;;1.50;1.20;;;;;;;11.73;100.00;95944.81;5034288;28;24451;-79
2021/10/04 05:14:50;;;;;;;1.40;1.30;;;;;;;11.71;100.00;95955.28;5045590;28;24514;-79
2021/10/04 05:17:16;;;;;;;1.83;1.10;;;;;;;11.75;100.00;95967.13;5036906;28;24431;-79
2021/10/04 05:19:43;;;;;;;2.05;1.42;;;;;;;11.81;100.00;95963.31;5043689;28;24435;-80
2021/10/04 05:22:10;;;;;;;1.83;1.38;;;;;;;11.77;100.00;95962.69;5046186;28;24459;-79
2021/10/04 05:24:37;;;;;;;2.13;1.25;;;;;;;11.77;100.00;95977.44;5044827;28;24825;-78
2021/10/04 05:27:04;;;;;;;1.70;1.15;;;;;;;11.78;100.00;95966.94;5044038;28;24412;-79
2021/10/04 05:29:31;;;;;;;2.20;1.00;;;;;;;11.82;100.00;95975.34;5044339;28;24956;-79
2021/10/04 05:31:58;;;;;;;1.38;1.27;;;;;;;11.83;100.00;95964.06;5046097;28;24482;-79
2021/10/04 05:34:24;;;;;;;2.63;1.00;;;;;;;11.84;100.00;95974.38;5046538;28;24443;-79
2021/10/04 05:36:51;;;;;;;1.30;1.20;;;;;;;11.88;100.00;95971.56;5044948;28;24428;-78
2021/10/04 05:39:18;;;;;;;1.88;1.50;;;;;;;11.89;100.00;95978.44;5045406;28;24428;-78
2021/10/04 05:41:45;;;;;;;1.52;1.13;;;;;;;11.89;100.00;95981.84;5043834;28;24960;-78
2021/10/04 05:44:11;;;;;;;1.77;1.20;;;;;;;11.86;100.00;95972.53;5043263;28;24473;-79
2021/10/04 05:46:38;;;;;;;1.35;0.98;;;;;;;11.85;100.00;95980.38;5042539;28;24446;-78
2021/10/04 05:49:04;;;;;;;1.48;1.25;;;;;;;11.84;100.00;95976.97;5043078;28;24431;-79
2021/10/04 05:51:31;;;;;;;1.70;1.10;;;;;;;11.84;100.00;95966.56;5037941;28;24432;-78
2021/10/04 05:53:57;;;;;;;1.63;1.20;;;;;;;11.93;100.00;95965.13;5033320;28;25180;-78
2021/10/04 05:56:25;;;;;;;1.40;1.20;;;;;;;12.11;100.00;95966.53;5032848;28;24477;-78
2021/10/04 05:58:52;;;;;;;1.77;1.67;;;;;;;12.23;100.00;95956.28;5033387;28;24430;-78
2021/10/04 06:01:18;;;;;;;1.92;1.48;;;;;;;12.09;100.00;95965.81;5033313;28;24415;-78
2021/10/04 06:03:45;;;;;;;1.70;1.40;;;;;;;11.92;100.00;95970.44;5033047;28;24466;-78
2021/10/04 06:06:11;;;;;;;1.60;1.50;;;;;;;11.92;100.00;95973.88;5081516;23;24467;-75
2021/10/04 06:08:38;;;;;;;1.20;1.00;;;;;;;11.75;100.00;95977.50;5070310;28;24528;-76
2021/10/04 06:11:04;;;;;;;10.45;1.40;;;;;;;11.74;100.00;95982.81;5064746;28;24444;-76
2021/10/04 06:13:32;;;;;;;2.25;1.25;;;;;;;11.70;100.00;95978.75;5059992;28;24441;-76
2021/10/04 06:15:58;;;;;;;1.42;1.08;;;;;;;11.74;100.00;95991.41;5062920;28;24439;-76
2021/10/04 06:18:25;;;;;;;2.00;1.38;;;;;;;11.73;100.00;95992.34;5057798;28;24839;-76
2021/10/04 06:20:52;;;;;;;1.40;1.20;;;;;;;11.66;100.00;95992.84;5072413;28;24434;-76
2021/10/04 06:23:19;;;;;;;1.88;1.42;;;;;;;11.61;100.00;95993.97;5063974;28;24528;-75
2021/10/04 06:25:45;;;;;;;2.90;1.45;;;;;;;11.63;100.00;96001.66;5071944;28;24426;-76
2021/10/04 06:28:12;;;;;;;1.70;1.05;;;;;;;11.63;100.00;96006.84;5068143;28;24847;-72
2021/10/04 06:30:40;;;;;;;5.38;1.20;;;;;;;11.70;100.00;96012.47;5065227;28;25209;-79
2021/10/04 06:33:06;;;;;;;3.75;1.38;;;;;;;11.69;100.00;96013.41;5059176;28;24430;-76
2021/10/04 06:35:34;;;;;;;2.67;1.20;;;;;;;11.73;100.00;96007.09;5059006;28;25026;-78
2021/10/04 06:38:01;;;;;;;4.50;1.60;;;;;;;11.76;100.00;96023.31;5064403;28;24438;-78
2021/10/04 06:40:27;;;;;;;5.93;1.85;;;;;;;11.76;100.00;96027.66;5072188;28;24434;-78
2021/10/04 06:42:54;;;;;;;3.92;1.75;;;;;;;11.77;100.00;96024.13;5063601;28;24816;-78
2021/10/04 06:45:20;;;;;;;2.35;1.67;;;;;;;11.83;100.00;96031.53;5072251;28;24426;-78
2021/10/04 06:47:48;;;;;;;5.25;2.28;;;;;;;11.71;100.00;96032.28;5072454;28;24423;-78
2021/10/04 06:50:14;;;;;;;5.32;2.20;;;;;;;11.59;100.00;96039.91;5072241;28;24431;-78
2021/10/04 06:52:42;;;;;;;3.17;1.85;;;;;;;11.47;100.00;96045.88;5074861;28;24422;-79
2021/10/04 06:55:10;;;;;;;4.55;3.42;;;;;;;11.34;100.00;96050.13;5072755;28;24460;-79
2021/10/04 06:57:37;;;;;;;4.68;2.47;;;;;;;11.28;100.00;96059.16;5069278;28;24870;-79
2021/10/04 07:00:06;;;;;;;4.10;2.47;;;;;;;11.30;100.00;96065.06;5068785;28;24443;-77
2021/10/04 07:02:33;;;;;;;2.50;1.80;;;;;;;11.47;100.00;96073.56;5052466;28;24526;-77
2021/10/04 07:05:01;;;;;;;2.90;1.53;;;;;;;11.56;100.00;96086.78;5051289;28;24431;-77
2021/10/04 07:07:27;;;;;;;1.60;0.95;;;;;;;11.55;100.00;96084.31;5051496;28;20865;-78
2021/10/04 07:09:54;;;;;;;5.88;1.38;;;;;;;11.49;100.00;96087.28;5051807;28;24786;-78
2021/10/04 07:12:20;;;;;;;3.07;1.20;;;;;;;11.50;100.00;96086.38;5051564;28;24929;-78
2021/10/04 07:14:47;;;;;;;1.30;0.88;;;;;;;11.49;100.00;96082.91;5051011;28;25146;-77
2021/10/04 07:17:14;;;;;;;1.60;0.90;;;;;;;11.57;100.00;96078.09;5051562;28;24440;-77
2021/10/04 07:19:40;;;;;;;1.60;1.23;;;;;;;11.57;100.00;96082.47;5051185;28;24985;-77
2021/10/04 07:22:08;;;;;;;2.45;1.27;;;;;;;11.67;100.00;96083.53;5051137;28;24489;-78
2021/10/04 07:24:34;;;;;;;2.20;1.15;;;;;;;11.72;100.00;96078.09;5051051;28;24423;-77
2021/10/04 07:27:01;;;;;;;2.45;1.40;;;;;;;11.75;100.00;96083.88;5052825;28;24442;-78
2021/10/04 07:29:28;;;;;;;2.42;1.80;;;;;;;11.79;100.00;96087.97;5051490;28;24518;-79
2021/10/04 07:31:55;;;;;;;2.40;1.75;;;;;;;11.79;100.00;96092.31;5068821;28;24430;-78
2021/10/04 07:34:21;;;;;;;2.80;1.48;;;;;;;11.76;100.00;96097.72;5070841;28;24423;-78
2021/10/04 07:36:48;;;;;;;3.03;1.52;;;;;;;11.69;100.00;96109.41;5071727;28;24426;-78
2021/10/04 07:39:16;;;;;;;3.30;1.30;;;;;;;11.69;100.00;96112.00;5060685;28;24438;-78
2021/10/04 07:41:46;;;;;;;2.53;1.52;;;;;;;11.49;100.00;96108.00;5051196;28;24432;-78
2021/10/04 07:44:13;;;;;;;2.15;1.30;;;;;;;11.39;100.00;96113.78;5053612;28;24411;-79
2021/10/04 07:46:39;;;;;;;2.20;1.33;;;;;;;11.36;100.00;96119.16;5051120;28;24437;-75
2021/10/04 07:49:05;;;;;;;2.05;1.30;;;;;;;11.47;100.00;96117.66;5050728;28;25026;-78
2021/10/04 07:51:32;;;;;;;1.42;0.98;;;;;;;11.61;100.00;96128.03;5050936;28;24423;-77
2021/10/04 07:53:59;;;;;;;5.20;1.30;;;;;;;11.66;100.00;96133.78;5049758;28;24941;-78
2021/10/04 07:56:26;;;;;;;2.40;1.02;;;;;;;11.67;100.00;96121.63;5050698;28;24477;-78
2021/10/04 07:58:53;;;;;;;1.35;0.73;;;;;;;11.45;100.00;96117.75;5050730;28;24427;-77
2021/10/04 08:01:19;;;;;;;0.50;0.38;;;;;;;11.48;100.00;96121.91;5063793;28;24469;-78
2021/10/04 08:03:46;;;;;;;0.70;0.40;;;;;;;11.54;100.00;96130.16;5070706;28;24438;-78
2021/10/04 08:06:13;;;;;;;0.90;0.50;;;;;;;11.67;100.00;96135.44;5070275;28;24472;-77
2021/10/04 08:08:40;;;;;;;0.77;0.50;;;;;;;11.65;100.00;96141.66;5072427;28;24516;-78
2021/10/04 08:11:07;;;;;;;0.82;0.57;;;;;;;11.68;100.00;96144.91;5074435;28;24423;-79
2021/10/04 08:13:35;;;;;;;0.80;0.50;;;;;;;11.70;100.00;96139.59;5073601;28;24431;-78
2021/10/04 08:16:03;;;;;;;1.55;0.75;;;;;;;11.91;100.00;96134.91;5072978;28;24609;-79
2021/10/04 08:18:29;;;;;;;1.05;0.57;;;;;;;12.19;100.00;96147.78;5073950;28;24429;-79
2021/10/04 08:20:56;;;;;;;0.60;0.40;;;;;;;12.09;100.00;96154.50;5074083;28;24410;-79
2021/10/04 08:23:22;;;;;;;0.80;0.57;;;;;;;11.94;100.00;96156.31;5074494;28;24439;-78
2021/10/04 08:25:49;;;;;;;1.15;0.60;;;;;;;11.95;100.00;96157.97;5073810;28;24438;-79
2021/10/04 08:28:15;;;;;;;2.38;0.90;;;;;;;11.79;100.00;96164.97;5073902;28;24418;-80
2021/10/04 08:30:43;;;;;;;1.00;0.73;;;;;;;11.83;100.00;96159.56;5072803;28;24435;-80
2021/10/04 08:33:10;;;;;;;2.10;1.02;;;;;;;11.89;100.00;96170.47;5073388;28;24413;-80
2021/10/04 08:35:36;;;;;;;2.13;1.20;;;;;;;11.84;100.00;96171.59;5073460;28;24427;-78
2021/10/04 08:38:02;;;;;;;1.30;1.08;;;;;;;11.77;100.00;96172.88;5073375;28;24796;-79
2021/10/04 08:40:29;;;;;;;1.30;1.10;;;;;;;11.83;100.00;96177.72;5073564;28;24427;-80
2021/10/04 08:42:56;;;;;;;3.55;1.30;;;;;;;11.91;100.00;96179.03;5072514;28;24970;-81
2021/10/04 08:45:26;;;;;;;2.50;1.63;;;;;;;11.92;100.00;96170.28;5072761;28;24434;-80
2021/10/04 08:47:58;;;;;;;1.52;1.10;;;;;;;11.92;100.00;96172.91;5073626;28;24982;-80
2021/10/04 08:50:28;;;;;;;2.22;1.20;;;;;;;11.96;100.00;96166.56;5073373;28;24785;-80
2021/10/04 08:52:55;;;;;;;1.42;1.08;;;;;;;11.99;100.00;96169.81;5074784;28;24836;-78
2021/10/04 08:55:22;;;;;;;4.22;1.30;;;;;;;11.90;100.00;96172.97;5075374;28;24417;-78
2021/10/04 08:57:49;;;;;;;3.03;1.40;;;;;;;11.95;100.00;96177.91;5074346;28;24991;-76
2021/10/04 09:00:16;;;;;;;5.35;1.58;;;;;;;11.99;100.00;96171.59;5071601;28;24423;-78
2021/10/04 09:02:43;;;;;;;2.28;1.23;;;;;;;12.06;100.00;96173.69;5073123;28;24450;-78
2021/10/04 09:05:18;;;;;;;1.95;1.13;;;;;;;12.09;100.00;96165.72;5073135;28;24464;-79
2021/10/04 09:07:46;;;;;;;3.80;1.02;;;;;;;12.07;100.00;96166.75;5077331;28;24435;-79
2021/10/04 09:10:16;;;;;;;1.70;1.02;;;;;;;12.15;100.00;96177.47;5077423;28;24488;-78
2021/10/04 09:12:51;;;;;;;1.98;1.00;;;;;;;12.06;100.00;96175.47;5079283;28;24951;-80
2021/10/04 09:15:29;;;;;;;1.65;0.90;;;;;;;11.91;100.00;96166.03;5076115;28;24434;-78
2021/10/04 09:17:57;;;;;;;1.63;1.00;;;;;;;12.02;100.00;96166.22;5076236;28;24484;-78
2021/10/04 09:20:26;;;;;;;1.88;0.93;;;;;;;12.09;100.00;96165.72;5076169;28;24472;-79
2021/10/04 09:22:53;;;;;;;1.07;0.73;;;;;;;12.08;100.00;96173.59;5076227;28;24524;-79
2021/10/04 09:25:19;;;;;;;2.40;1.10;;;;;;;12.06;100.00;96163.31;5075917;28;24939;-79
2021/10/04 09:27:47;;;;;;;1.80;0.77;;;;;;;12.07;100.00;96166.75;5069878;28;24839;-78
2021/10/04 09:30:16;;;;;;;1.48;0.80;;;;;;;12.03;100.00;96176.47;5067094;28;24434;-79
2021/10/04 09:32:44;;;;;;;1.60;0.75;;;;;;;11.82;100.00;96176.00;5074899;28;24881;-80
2021/10/04 09:35:17;;;;;;;2.80;0.60;;;;;;;11.88;100.00;96180.03;5072290;28;24501;-78
2021/10/04 09:37:47;;;;;;;0.70;0.50;;;;;;;11.95;100.00;96183.91;5088430;28;24500;-77
2021/10/04 09:40:33;;;;;;;1.63;0.70;;;;;;;11.99;100.00;96180.19;5091472;28;24983;-78
2021/10/04 09:43:00;;;;;;;1.03;0.63;;;;;;;11.82;100.00;96176.00;5088025;28;24453;-79
2021/10/04 09:45:27;;;;;;;1.13;0.65;;;;;;;11.61;100.00;96185.13;5094353;28;24434;-79
2021/10/04 09:47:55;;;;;;;0.93;0.65;;;;;;;11.61;100.00;96169.56;5083751;28;24461;-79
2021/10/04 09:50:26;;;;;;;1.60;0.80;;;;;;;11.62;100.00;96166.84;5089883;28;24479;-80
2021/10/04 09:52:57;;;;;;;1.17;0.67;;;;;;;11.71;100.00;96172.41;5077091;28;24430;-78
2021/10/04 09:55:30;;;;;;;1.67;0.43;;;;;;;11.78;100.00;96171.09;5082918;28;24442;-78
2021/10/04 09:58:05;;;;;;;2.10;0.60;;;;;;;11.91;100.00;96166.03;5075404;28;25026;-77
2021/10/04 10:00:36;;;;;;;0.95;0.35;;;;;;;11.68;100.00;96170.84;5074164;28;24441;-78
2021/10/04 10:03:04;;;;;;;2.10;0.60;;;;;;;11.66;100.00;96171.84;5086184;28;24457;-77
2021/10/04 10:05:33;;;;;;;0.68;0.50;;;;;;;11.65;100.00;96165.84;5075703;28;24438;-76
2021/10/04 10:08:01;;;;;;;1.40;0.50;;;;;;;11.60;100.00;96167.84;5076087;28;24479;-78
2021/10/04 10:10:28;;;;;;;0.70;0.50;;;;;;;11.71;100.00;96169.81;5076319;28;24541;-77
2021/10/04 10:12:55;;;;;;;1.70;0.52;;;;;;;11.82;100.00;96164.78;5076467;28;24411;-80
2021/10/04 10:15:24;;;;;;;0.90;0.60;;;;;;;11.93;100.00;96143.41;5075448;28;24464;-79
2021/10/04 10:17:56;;;;;;;1.00;0.45;;;;;;;12.29;100.00;96146.28;5062885;28;24441;-80
2021/10/04 10:20:23;;;;;;;1.70;0.50;;;;;;;12.20;100.00;96140.81;5055365;28;24839;-80
2021/10/04 10:22:52;;;;;;;1.88;0.65;;;;;;;12.59;100.00;96142.66;5055094;28;24513;-80
2021/10/04 10:25:39;;;;;;;1.23;0.50;;;;;;;12.64;100.00;96156.16;5054947;28;24434;-79
2021/10/04 10:28:26;;;;;;;2.00;0.50;;;;;;;12.43;100.00;96158.41;5055643;28;24415;-79
2021/10/04 10:30:54;;;;;;;1.23;0.47;;;;;;;12.30;100.00;96157.50;5083501;28;24519;-80
2021/10/04 10:33:46;;;;;;;0.77;0.52;;;;;;;12.26;100.00;96156.88;5094973;28;24414;-78
2021/10/04 10:36:13;;;;;;;0.85;0.60;;;;;;;12.12;100.00;96151.69;5094896;28;24436;-79
2021/10/04 10:39:01;;;;;;;1.05;0.52;;;;;;;12.17;100.00;96154.88;5095485;28;24452;-78
2021/10/04 10:41:28;;;;;;;1.43;0.80;;;;;;;12.11;100.00;96160.44;5095201;28;24512;-80
2021/10/04 10:44:06;;;;;;;1.20;0.70;;;;;;;11.96;100.00;96163.97;5094510;28;24590;-79
2021/10/04 10:46:54;;;;;;;0.80;0.60;;;;;;;11.90;100.00;96161.75;5094716;28;24410;-79
2021/10/04 10:49:50;;;;;;;1.73;0.70;;;;;;;11.99;100.00;96159.44;5094638;28;24424;-79
2021/10/04 10:52:19;;;;;;;0.98;0.63;;;;;;;12.11;100.00;96168.22;5060068;28;24884;-79
2021/10/04 10:54:45;;;;;;;1.50;0.60;;;;;;;12.18;100.00;96168.69;5054360;28;24411;-79
2021/10/04 10:57:12;;;;;;;1.10;0.50;;;;;;;12.23;100.00;96154.47;5054086;28;24424;-79
2021/10/04 10:59:38;;;;;;;0.70;0.50;;;;;;;12.30;100.00;96160.94;5054690;28;24454;-78
2021/10/04 11:02:06;;;;;;;0.95;0.50;;;;;;;12.31;100.00;96159.16;5054405;28;24430;-78
2021/10/04 11:04:39;;;;;;;0.57;0.40;;;;;;;12.41;100.00;96162.03;5054463;28;24435;-78
2021/10/04 11:07:06;;;;;;;0.70;0.50;;;;;;;12.36;100.00;96154.53;5054721;28;24527;-79
2021/10/04 11:10:14;;;;;;;1.48;0.70;;;;;;;12.41;100.00;96154.22;5054376;28;24427;-79
2021/10/04 11:13:14;;;;;;;0.65;0.65;;;;;;;12.34;100.00;96143.38;4995785;28;24875;-79
2021/10/04 11:15:41;;;;;;;1.20;0.45;;;;;;;12.34;100.00;96141.63;5053389;28;24488;-79
2021/10/04 11:18:10;;;;;;;0.95;0.43;;;;;;;12.43;100.00;96135.03;5054156;28;25000;-79
2021/10/04 11:20:38;;;;;;;0.70;0.50;;;;;;;12.47;100.00;96127.88;5053384;28;24423;-78
2021/10/04 11:23:04;;;;;;;0.80;0.63;;;;;;;12.44;100.00;96135.84;5053799;28;24489;-80
2021/10/04 11:25:31;;;;;;;0.73;0.60;;;;;;;12.39;100.00;96141.34;5053399;28;24438;-77
2021/10/04 11:27:57;;;;;;;0.80;0.40;;;;;;;12.43;100.00;96134.19;5052782;28;24523;-78
2021/10/04 11:30:24;;;;;;;0.50;0.50;;;;;;;12.39;100.00;96135.31;5053195;28;24553;-78